Time;durP1;ratioP1;P1;durP2;ratioP2;P2;SDS_P1;SDS_P2;PMS_P1;PMS_P2;Temp;Humidity;BMP_temperature;BMP_pressure;BME280_temperature;BME280_humidity;BME280_pressure;Samples;Min_cycle;Max_cycle;Signal;HPM_P1;HPM_P2
2024/05/07 00:01:27;;;;;;;2.17;1.48;;;;;;;12.71;100.00;95803.50;5341863;26;20020;-61
2024/05/07 00:03:52;;;;;;;1.85;1.52;;;;;;;12.75;100.00;95807.19;5341934;26;20013;-61
2024/05/07 00:06:17;;;;;;;1.35;1.20;;;;;;;12.46;100.00;95807.13;5341259;26;20415;-61
2024/05/07 00:08:42;;;;;;;3.90;2.10;;;;;;;12.34;100.00;95810.06;5341415;26;20013;-61
2024/05/07 00:11:08;;;;;;;1.42;1.33;;;;;;;12.33;100.00;95813.78;5342984;26;20013;-61
2024/05/07 00:13:33;;;;;;;3.25;1.63;;;;;;;12.22;100.00;95815.72;5341372;26;20025;-60
2024/05/07 00:15:58;;;;;;;2.58;1.70;;;;;;;12.33;100.00;95811.16;5339394;26;20441;-61
2024/05/07 00:18:24;;;;;;;1.80;1.50;;;;;;;12.08;100.00;95814.72;5338530;26;20460;-61
2024/05/07 00:20:49;;;;;;;2.28;1.70;;;;;;;12.07;100.00;95810.47;5341000;26;20028;-61
2024/05/07 00:23:14;;;;;;;2.40;1.90;;;;;;;12.11;100.00;95810.72;5341289;26;20094;-61
2024/05/07 00:25:41;;;;;;;2.45;1.48;;;;;;;12.31;100.00;95814.06;5340290;26;20009;-61
2024/05/07 00:28:08;;;;;;;1.17;1.02;;;;;;;12.39;100.00;95810.06;5340561;26;20024;-61
2024/05/07 00:30:33;;;;;;;1.13;1.02;;;;;;;12.39;100.00;95807.41;5340636;26;20016;-61
2024/05/07 00:32:59;;;;;;;2.58;1.52;;;;;;;12.31;100.00;95815.91;5342744;26;20093;-61
2024/05/07 00:35:24;;;;;;;2.20;1.30;;;;;;;12.37;100.00;95804.25;5341178;26;20036;-61
2024/05/07 00:37:49;;;;;;;3.20;1.88;;;;;;;12.43;100.00;95803.16;5341736;26;20016;-60
2024/05/07 00:40:15;;;;;;;1.90;1.33;;;;;;;12.68;100.00;95804.06;5338169;26;20071;-61
2024/05/07 00:42:54;;;;;;;1.65;1.30;;;;;;;12.67;100.00;95807.78;5342263;26;20013;-60
2024/05/07 00:45:20;;;;;;;1.08;0.98;;;;;;;12.54;100.00;95804.66;5340405;26;20013;-60
2024/05/07 00:47:47;;;;;;;1.33;1.20;;;;;;;12.40;100.00;95805.53;5342474;26;20095;-60
2024/05/07 00:50:13;;;;;;;3.85;1.75;;;;;;;12.54;100.00;95804.66;5338107;26;20005;-61
2024/05/07 00:52:39;;;;;;;1.70;1.30;;;;;;;12.69;100.00;95805.63;5341652;26;20074;-61
2024/05/07 00:55:05;;;;;;;2.00;1.45;;;;;;;12.32;100.00;95806.94;5341029;26;20009;-61
2024/05/07 00:57:33;;;;;;;1.50;1.40;;;;;;;12.39;100.00;95809.25;5340505;26;20024;-61
2024/05/07 00:59:59;;;;;;;1.92;1.55;;;;;;;12.43;100.00;95810.31;5340111;26;20005;-62
2024/05/07 01:02:24;;;;;;;1.55;1.38;;;;;;;12.62;100.00;95810.44;5340815;26;20047;-62
2024/05/07 01:04:50;;;;;;;2.30;1.60;;;;;;;12.58;100.00;95800.41;5341897;26;20051;-61
2024/05/07 01:07:15;;;;;;;2.38;1.70;;;;;;;12.50;100.00;95803.66;5340654;26;20033;-61
2024/05/07 01:09:41;;;;;;;2.25;1.23;;;;;;;12.50;100.00;95806.31;5341253;26;20004;-60
2024/05/07 01:12:06;;;;;;;1.20;1.10;;;;;;;12.59;100.00;95811.78;5340168;26;20049;-61
2024/05/07 01:14:33;;;;;;;2.38;1.80;;;;;;;12.35;100.00;95806.34;5352162;26;20039;-61
2024/05/07 01:16:59;;;;;;;4.30;1.25;;;;;;;12.53;100.00;95805.72;5340564;26;20009;-60
2024/05/07 01:19:24;;;;;;;2.47;2.00;;;;;;;12.41;100.00;95800.00;5341592;26;20013;-61
2024/05/07 01:21:52;;;;;;;2.35;1.77;;;;;;;12.10;100.00;95809.94;5337253;26;20464;-61
2024/05/07 01:24:17;;;;;;;1.63;1.38;;;;;;;12.50;100.00;95803.66;5340609;26;20000;-60
2024/05/07 01:26:43;;;;;;;2.08;1.35;;;;;;;12.39;100.00;95810.06;5340727;26;20020;-61
2024/05/07 01:29:08;;;;;;;1.73;1.55;;;;;;;12.38;100.00;95810.34;5341080;26;20019;-60
2024/05/07 01:31:34;;;;;;;1.27;1.17;;;;;;;12.69;100.00;95810.91;5340061;26;20024;-62
2024/05/07 01:34:00;;;;;;;2.53;1.70;;;;;;;12.40;100.00;95808.19;5338777;26;20013;-60
2024/05/07 01:36:25;;;;;;;3.10;1.45;;;;;;;12.59;100.00;95812.56;5340418;26;20009;-61
2024/05/07 01:38:51;;;;;;;2.25;1.45;;;;;;;12.31;100.00;95807.97;5340447;26;20005;-61
2024/05/07 01:41:17;;;;;;;1.75;1.50;;;;;;;12.47;100.00;95806.03;5340678;26;20023;-61
2024/05/07 01:43:43;;;;;;;2.30;1.60;;;;;;;12.57;100.00;95808.63;5339274;26;20008;-61
2024/05/07 01:46:08;;;;;;;1.50;1.35;;;;;;;12.68;100.00;95802.19;5340019;26;20032;-62
2024/05/07 01:48:33;;;;;;;7.35;2.00;;;;;;;12.51;100.00;95802.59;5339765;26;20023;-62
2024/05/07 01:50:59;;;;;;;2.15;1.20;;;;;;;12.24;100.00;95804.84;5340591;26;20337;-60
2024/05/07 01:53:24;;;;;;;8.20;1.42;;;;;;;12.19;100.00;95802.22;5339551;26;20009;-60
2024/05/07 01:55:49;;;;;;;2.10;1.70;;;;;;;12.14;100.00;95807.53;5340232;26;20024;-61
2024/05/07 01:58:15;;;;;;;1.77;1.48;;;;;;;12.39;100.00;95802.13;5339146;26;20023;-61
2024/05/07 02:00:40;;;;;;;1.65;1.38;;;;;;;12.52;100.00;95804.16;5338858;26;22222;-61
2024/05/07 02:03:09;;;;;;;2.08;1.42;;;;;;;12.67;100.00;95797.19;5341233;26;20116;-61
2024/05/07 02:05:35;;;;;;;3.80;1.75;;;;;;;12.53;100.00;95805.72;5335630;26;20086;-61
2024/05/07 02:08:00;;;;;;;2.05;1.58;;;;;;;12.56;100.00;95810.50;5338091;26;20048;-62
2024/05/07 02:10:25;;;;;;;2.20;1.27;;;;;;;12.56;100.00;95807.84;5337160;26;20452;-62
2024/05/07 02:12:51;;;;;;;4.38;1.83;;;;;;;12.97;100.00;95801.44;5340962;26;20016;-60
2024/05/07 02:15:16;;;;;;;2.15;1.30;;;;;;;12.93;100.00;95806.50;5340076;26;20360;-61
2024/05/07 02:17:41;;;;;;;2.65;2.05;;;;;;;13.03;100.00;95806.44;5341062;26;20116;-61
2024/05/07 02:20:07;;;;;;;1.60;1.50;;;;;;;13.14;100.00;95812.44;5335837;26;20453;-61
2024/05/07 02:22:33;;;;;;;3.65;1.38;;;;;;;13.13;100.00;95804.75;5340079;26;20055;-60
2024/05/07 02:25:00;;;;;;;2.40;1.88;;;;;;;13.09;100.00;95802.69;5356015;26;20391;-61
2024/05/07 02:27:25;;;;;;;2.38;1.70;;;;;;;12.97;100.00;95818.13;5340004;26;20467;-62
2024/05/07 02:29:50;;;;;;;3.80;1.92;;;;;;;12.92;100.00;95810.22;5338565;26;20024;-61
2024/05/07 02:32:15;;;;;;;1.98;1.30;;;;;;;12.93;100.00;95814.44;5339672;26;20001;-60
2024/05/07 02:34:41;;;;;;;1.65;1.48;;;;;;;12.42;100.00;95806.06;5340436;26;20698;-61
2024/05/07 02:37:06;;;;;;;2.70;1.73;;;;;;;12.61;100.00;95814.16;5339850;26;20016;-61
2024/05/07 02:39:31;;;;;;;2.00;1.63;;;;;;;12.62;100.00;95813.09;5339617;26;20334;-61
2024/05/07 02:41:56;;;;;;;2.15;1.85;;;;;;;12.75;100.00;95804.53;5338655;26;20012;-60
2024/05/07 02:44:22;;;;;;;3.55;2.22;;;;;;;12.65;100.00;95810.69;5340200;26;20032;-61
2024/05/07 02:46:47;;;;;;;2.30;1.95;;;;;;;12.48;100.00;95808.41;5338937;26;20020;-60
2024/05/07 02:49:12;;;;;;;2.08;1.58;;;;;;;12.10;100.00;95807.28;5338095;26;20024;-61
2024/05/07 02:51:38;;;;;;;1.45;1.20;;;;;;;11.96;100.00;95809.72;5339276;26;20452;-62
2024/05/07 02:54:03;;;;;;;1.63;1.25;;;;;;;12.05;100.00;95804.66;5339729;26;20035;-61
2024/05/07 02:56:28;;;;;;;2.08;1.88;;;;;;;11.90;100.00;95800.22;5339214;26;20020;-61
2024/05/07 02:58:54;;;;;;;1.73;1.60;;;;;;;11.93;100.00;95804.16;5339372;26;20823;-62
2024/05/07 03:01:19;;;;;;;2.75;1.95;;;;;;;11.88;100.00;95812.94;5340575;26;20292;-61
2024/05/07 03:03:45;;;;;;;1.90;1.70;;;;;;;11.94;100.00;95811.06;5338619;26;20020;-62
2024/05/07 03:06:10;;;;;;;2.97;2.05;;;;;;;12.24;100.00;95804.84;5339215;26;20009;-60
2024/05/07 03:08:37;;;;;;;3.90;2.05;;;;;;;12.44;100.00;95807.38;5339033;26;20009;-61
2024/05/07 03:11:02;;;;;;;1.95;1.33;;;;;;;12.32;100.00;95818.28;5339811;26;20001;-60
2024/05/07 03:13:28;;;;;;;1.98;1.48;;;;;;;12.25;100.00;95811.72;5338870;26;20326;-64
2024/05/07 03:15:53;;;;;;;2.65;1.80;;;;;;;12.06;100.00;95814.19;5339461;26;20012;-62
2024/05/07 03:18:18;;;;;;;2.75;1.60;;;;;;;12.14;100.00;95815.47;5339313;26;20020;-60
2024/05/07 03:20:44;;;;;;;5.13;1.70;;;;;;;12.27;100.00;95809.59;5331275;26;20339;-61
2024/05/07 03:23:10;;;;;;;2.08;1.75;;;;;;;12.21;100.00;95811.47;5338039;26;20243;-61
2024/05/07 03:25:36;;;;;;;2.47;1.83;;;;;;;12.48;100.00;95815.56;5337619;26;20037;-61
2024/05/07 03:28:02;;;;;;;3.00;2.10;;;;;;;12.44;100.00;95798.66;5338998;26;20086;-61
2024/05/07 03:30:28;;;;;;;2.13;1.77;;;;;;;12.66;100.00;95801.69;5336529;26;20428;-61
2024/05/07 03:32:53;;;;;;;2.38;1.95;;;;;;;12.64;100.00;95795.88;5339464;26;20009;-61
2024/05/07 03:35:18;;;;;;;1.70;1.60;;;;;;;12.80;100.00;95797.34;5338998;26;20015;-60
2024/05/07 03:37:44;;;;;;;8.93;1.55;;;;;;;12.70;100.00;95801.94;5338813;26;20023;-62
2024/05/07 03:40:09;;;;;;;1.67;1.55;;;;;;;12.78;100.00;95796.03;5336924;26;20012;-60
2024/05/07 03:42:35;;;;;;;7.40;2.17;;;;;;;12.52;100.00;95790.91;5339699;26;20442;-61
2024/05/07 03:45:00;;;;;;;3.40;1.83;;;;;;;12.49;100.00;95794.09;5339685;26;20005;-61
2024/05/07 03:47:25;;;;;;;1.38;1.20;;;;;;;12.48;100.00;95795.19;5339484;26;20255;-61
2024/05/07 03:49:51;;;;;;;2.55;1.60;;;;;;;12.56;100.00;95791.97;5338495;26;20024;-61
2024/05/07 03:52:16;;;;;;;1.60;1.42;;;;;;;12.28;100.00;95797.94;5338527;26;20055;-61
2024/05/07 03:54:41;;;;;;;2.78;1.67;;;;;;;12.23;100.00;95787.41;5337978;26;20020;-61
2024/05/07 03:57:06;;;;;;;3.38;1.83;;;;;;;12.49;100.00;95796.75;5334830;26;20009;-61
2024/05/07 03:59:32;;;;;;;5.10;2.03;;;;;;;11.95;100.00;95796.78;5339057;26;20009;-60
2024/05/07 04:01:57;;;;;;;5.13;1.92;;;;;;;12.15;100.00;95788.75;5338263;26;20005;-61
2024/05/07 04:04:22;;;;;;;3.38;2.00;;;;;;;12.13;100.00;95798.03;5339402;26;20083;-60
2024/05/07 04:06:48;;;;;;;4.10;2.20;;;;;;;12.43;100.00;95792.56;5337964;26;20028;-61
2024/05/07 04:09:13;;;;;;;2.58;2.08;;;;;;;12.59;100.00;95793.25;5337370;26;20016;-61
2024/05/07 04:11:40;;;;;;;3.25;1.77;;;;;;;12.69;100.00;95798.47;5337734;26;20099;-61
2024/05/07 04:14:05;;;;;;;2.30;1.58;;;;;;;12.92;100.00;95802.28;5337221;26;20009;-62
2024/05/07 04:16:30;;;;;;;2.45;1.70;;;;;;;12.86;100.00;95808.69;5339119;26;20420;-61
2024/05/07 04:18:56;;;;;;;2.33;1.70;;;;;;;13.09;100.00;95802.69;5337404;26;20032;-61
2024/05/07 04:21:21;;;;;;;5.97;1.70;;;;;;;13.04;100.00;95810.69;5359942;26;20248;-61
2024/05/07 04:23:46;;;;;;;3.03;1.80;;;;;;;12.94;100.00;95813.41;5333304;26;20685;-61
2024/05/07 04:26:12;;;;;;;2.20;1.63;;;;;;;12.52;100.00;95812.09;5332392;26;20009;-61
2024/05/07 04:28:37;;;;;;;2.10;1.90;;;;;;;12.56;100.00;95812.34;5333647;26;20344;-61
2024/05/07 04:31:02;;;;;;;2.17;1.67;;;;;;;13.06;100.00;95816.47;5339636;26;20012;-62
2024/05/07 04:33:28;;;;;;;1.77;1.58;;;;;;;13.21;100.00;95815.56;5338739;26;20023;-61
2024/05/07 04:35:53;;;;;;;1.85;1.45;;;;;;;13.17;100.00;95814.53;5341113;26;20016;-61
2024/05/07 04:38:19;;;;;;;2.20;1.70;;;;;;;13.37;100.00;95815.44;5341112;26;20023;-62
2024/05/07 04:40:44;;;;;;;1.58;1.10;;;;;;;13.04;100.00;95817.84;5341671;26;20008;-62
2024/05/07 04:43:13;;;;;;;2.60;1.88;;;;;;;13.23;100.00;95817.97;5340927;26;20005;-60
2024/05/07 04:45:38;;;;;;;2.95;1.65;;;;;;;13.05;100.00;95820.19;5340917;26;20009;-62
2024/05/07 04:48:07;;;;;;;1.55;1.38;;;;;;;13.29;100.00;95816.84;5340948;26;20009;-61
2024/05/07 04:50:32;;;;;;;1.83;1.52;;;;;;;13.47;100.00;95826.75;5342082;26;20022;-62
2024/05/07 04:52:58;;;;;;;2.33;1.80;;;;;;;13.79;100.00;95817.41;5341381;26;20005;-61
2024/05/07 04:55:23;;;;;;;2.20;1.80;;;;;;;13.59;100.00;95823.72;5338681;26;20470;-60
2024/05/07 04:57:48;;;;;;;1.33;1.23;;;;;;;13.45;100.00;95818.28;5339930;26;20041;-62
2024/05/07 05:00:14;;;;;;;2.10;1.80;;;;;;;13.49;100.00;95826.47;5343083;26;20503;-61
2024/05/07 05:02:39;;;;;;;3.28;1.70;;;;;;;13.30;100.00;95821.06;5341148;26;20036;-61
2024/05/07 05:05:05;;;;;;;2.58;1.67;;;;;;;13.26;100.00;95825.34;5340307;26;20015;-62
2024/05/07 05:07:30;;;;;;;4.82;1.80;;;;;;;13.15;100.00;95829.91;5341738;26;20009;-61
2024/05/07 05:09:55;;;;;;;2.83;1.80;;;;;;;12.98;100.00;95826.88;5339943;26;20005;-60
2024/05/07 05:12:20;;;;;;;1.85;1.50;;;;;;;12.98;100.00;95830.31;5340849;26;20013;-62
2024/05/07 05:14:46;;;;;;;2.40;1.85;;;;;;;13.03;100.00;95832.94;5340808;26;20005;-61
2024/05/07 05:17:11;;;;;;;2.28;1.80;;;;;;;13.04;100.00;95846.97;5340112;26;20012;-61
2024/05/07 05:19:37;;;;;;;3.08;2.25;;;;;;;13.12;100.00;95845.56;5341644;26;20055;-61
2024/05/07 05:22:02;;;;;;;3.63;2.28;;;;;;;13.23;100.00;95841.81;5339860;26;20031;-61
2024/05/07 05:24:28;;;;;;;3.58;1.98;;;;;;;13.41;100.00;95837.66;5340702;26;20463;-61
2024/05/07 05:26:53;;;;;;;4.10;2.10;;;;;;;13.34;100.00;95849.38;5338340;26;20028;-60
2024/05/07 05:29:18;;;;;;;2.90;2.03;;;;;;;13.26;100.00;95852.63;5340260;26;20025;-61
2024/05/07 05:31:43;;;;;;;3.05;2.40;;;;;;;13.42;100.00;95844.56;5339431;26;20049;-61
2024/05/07 05:34:09;;;;;;;3.15;2.30;;;;;;;13.45;100.00;95858.03;5341406;26;20515;-61
2024/05/07 05:36:38;;;;;;;3.33;2.60;;;;;;;13.56;100.00;95851.59;5340775;26;20021;-61
2024/05/07 05:39:03;;;;;;;7.20;2.58;;;;;;;13.78;100.00;95861.69;5339494;26;20809;-62
2024/05/07 05:41:31;;;;;;;3.30;2.00;;;;;;;14.08;100.00;95860.59;5332593;26;20017;-61
2024/05/07 05:43:57;;;;;;;2.60;1.60;;;;;;;14.19;97.62;95863.13;5339922;26;20009;-61
2024/05/07 05:46:22;;;;;;;3.30;1.80;;;;;;;14.20;97.79;95864.72;5342276;26;20009;-61
2024/05/07 05:48:49;;;;;;;3.17;1.50;;;;;;;14.26;96.06;95869.66;5340475;26;20005;-61
2024/05/07 05:51:16;;;;;;;1.45;1.33;;;;;;;14.27;94.55;95871.22;5340675;26;20028;-61
2024/05/07 05:53:41;;;;;;;2.97;1.67;;;;;;;14.47;96.63;95864.91;5340073;26;20005;-61
2024/05/07 05:56:06;;;;;;;1.48;1.27;;;;;;;14.59;94.88;95865.28;5339775;26;20020;-61
2024/05/07 05:58:32;;;;;;;2.95;1.58;;;;;;;14.38;96.10;95866.63;5339724;26;20032;-61
2024/05/07 06:00:57;;;;;;;4.78;1.70;;;;;;;14.21;96.18;95871.59;5340065;26;20013;-61
2024/05/07 06:03:22;;;;;;;2.08;1.42;;;;;;;13.78;98.92;95868.88;5338438;26;20468;-60
2024/05/07 06:05:49;;;;;;;4.47;1.52;;;;;;;13.83;99.93;95871.47;5339679;26;20013;-61
2024/05/07 06:08:15;;;;;;;1.40;1.30;;;;;;;13.72;98.81;95872.66;5338960;26;20017;-61
2024/05/07 06:10:41;;;;;;;2.08;1.88;;;;;;;13.72;100.00;95877.94;5340988;26;20060;-61
2024/05/07 06:13:10;;;;;;;1.58;1.42;;;;;;;13.73;99.43;95882.97;5340010;26;20023;-62
2024/05/07 06:15:36;;;;;;;2.25;1.58;;;;;;;14.02;98.07;95880.28;5310463;26;20483;-61
2024/05/07 06:18:02;;;;;;;2.40;1.58;;;;;;;14.20;93.11;95876.09;5339157;26;20024;-61
2024/05/07 06:20:27;;;;;;;3.95;1.25;;;;;;;14.34;90.44;95881.53;5338752;26;20005;-61
2024/05/07 06:22:52;;;;;;;2.17;1.25;;;;;;;14.71;90.39;95891.44;5339673;26;20032;-61
2024/05/07 06:25:18;;;;;;;2.97;1.63;;;;;;;14.77;89.56;95887.63;5340076;26;20004;-61
2024/05/07 06:27:43;;;;;;;1.85;1.33;;;;;;;14.92;88.88;95891.16;5340750;26;20020;-60
2024/05/07 06:30:08;;;;;;;3.22;1.30;;;;;;;14.66;89.02;95888.03;5338468;26;20444;-61
2024/05/07 06:32:34;;;;;;;2.78;1.33;;;;;;;15.09;88.32;95888.75;5339584;26;20085;-61
2024/05/07 06:34:59;;;;;;;1.80;1.10;;;;;;;15.42;85.96;95897.56;5333726;26;20013;-61
2024/05/07 06:37:24;;;;;;;0.87;0.83;;;;;;;15.88;86.00;95896.84;5335322;26;20993;-61
2024/05/07 06:39:49;;;;;;;2.30;1.20;;;;;;;16.03;84.62;95893.09;5335851;26;20288;-62
2024/05/07 06:42:15;;;;;;;1.37;1.10;;;;;;;16.28;82.04;95905.13;5334741;26;20309;-61
2024/05/07 06:44:40;;;;;;;1.97;0.83;;;;;;;16.05;79.54;95905.03;5337920;26;20351;-62
2024/05/07 06:47:05;;;;;;;1.27;1.00;;;;;;;15.39;81.38;95904.25;5335930;26;20629;-61
2024/05/07 06:49:30;;;;;;;1.57;0.83;;;;;;;14.91;80.39;95906.31;5337900;26;20005;-61
2024/05/07 06:51:56;;;;;;;0.93;0.80;;;;;;;14.74;83.30;95911.31;5335314;26;20243;-61
2024/05/07 06:54:21;;;;;;;0.83;0.83;;;;;;;15.08;84.20;95911.91;5338359;26;20013;-61
2024/05/07 06:56:46;;;;;;;1.85;0.93;;;;;;;14.72;82.67;95908.97;5338337;26;20243;-61
2024/05/07 06:59:12;;;;;;;1.85;1.08;;;;;;;14.77;82.63;95908.88;5338747;26;20019;-61
2024/05/07 07:01:37;;;;;;;1.92;1.15;;;;;;;14.96;83.03;95908.91;5337780;26;20013;-61
2024/05/07 07:04:02;;;;;;;1.17;0.98;;;;;;;15.19;81.61;95914.41;5338476;26;20013;-60
2024/05/07 07:06:28;;;;;;;0.68;0.60;;;;;;;15.32;79.04;95905.69;5336068;26;20016;-61
2024/05/07 07:08:53;;;;;;;1.90;0.60;;;;;;;15.15;79.05;95916.88;5339898;26;20004;-60
2024/05/07 07:11:19;;;;;;;1.23;0.80;;;;;;;15.42;81.20;95913.50;5340755;26;20009;-61
2024/05/07 07:13:45;;;;;;;8.10;1.10;;;;;;;15.47;79.99;95916.09;5339619;26;20015;-60
2024/05/07 07:16:11;;;;;;;1.55;1.08;;;;;;;15.54;76.50;95924.50;5337309;26;20032;-61
2024/05/07 07:18:36;;;;;;;1.20;1.00;;;;;;;15.70;75.91;95917.09;5336924;26;20087;-61
2024/05/07 07:21:02;;;;;;;0.73;0.63;;;;;;;16.10;77.75;95917.47;5338604;26;20008;-61
2024/05/07 07:23:27;;;;;;;1.10;0.73;;;;;;;16.15;74.93;95926.16;5338343;26;20346;-62
2024/05/07 07:25:53;;;;;;;1.05;0.88;;;;;;;16.86;74.35;95928.50;5336302;26;20023;-63
2024/05/07 07:28:19;;;;;;;2.08;0.63;;;;;;;16.70;70.66;95921.88;5338610;26;20005;-62
2024/05/07 07:30:44;;;;;;;1.08;0.73;;;;;;;16.40;73.63;95919.53;5338409;26;20020;-62
2024/05/07 07:33:10;;;;;;;0.80;0.65;;;;;;;16.97;73.45;95913.88;5335588;26;20074;-62
2024/05/07 07:35:36;;;;;;;2.17;0.80;;;;;;;17.30;70.68;95909.13;5334778;26;20368;-61
2024/05/07 07:38:02;;;;;;;1.38;0.90;;;;;;;17.68;70.65;95920.22;5336217;26;20050;-61
2024/05/07 07:40:27;;;;;;;0.60;0.47;;;;;;;16.87;68.93;95912.22;5336187;26;20028;-61
2024/05/07 07:42:52;;;;;;;1.23;0.40;;;;;;;16.31;70.44;95920.53;5335736;26;20012;-62
2024/05/07 07:45:17;;;;;;;0.90;0.70;;;;;;;15.63;77.34;95922.78;5335382;26;20251;-62
2024/05/07 07:47:43;;;;;;;0.30;0.30;;;;;;;15.69;72.79;95920.03;5336361;26;20044;-62
2024/05/07 07:50:08;;;;;;;1.10;0.70;;;;;;;15.96;74.69;95920.09;5334457;26;20292;-62
2024/05/07 07:52:33;;;;;;;0.88;0.57;;;;;;;16.21;72.39;95921.50;5337149;26;20016;-62
2024/05/07 07:54:58;;;;;;;1.00;0.70;;;;;;;16.70;72.02;95919.22;5335987;26;20048;-62
2024/05/07 07:57:24;;;;;;;0.85;0.77;;;;;;;16.11;67.35;95929.69;5338454;26;20284;-62
2024/05/07 07:59:49;;;;;;;1.48;0.77;;;;;;;16.37;73.70;95922.78;5338269;26;20009;-63
2024/05/07 08:02:14;;;;;;;1.38;0.90;;;;;;;16.91;70.93;95928.38;5336918;26;20464;-62
2024/05/07 08:04:40;;;;;;;0.65;0.50;;;;;;;16.60;68.94;95934.34;5337256;26;20008;-62
2024/05/07 08:07:05;;;;;;;1.38;0.70;;;;;;;16.36;68.85;95934.53;5339232;26;20005;-62
2024/05/07 08:09:30;;;;;;;2.38;1.00;;;;;;;16.30;69.43;95932.28;5341054;26;20041;-63
2024/05/07 08:11:55;;;;;;;0.63;0.63;;;;;;;16.21;68.15;95936.69;5341075;26;20016;-62
2024/05/07 08:14:21;;;;;;;0.73;0.57;;;;;;;16.21;70.24;95939.38;5341216;26;20017;-62
2024/05/07 08:16:46;;;;;;;1.63;1.00;;;;;;;16.91;70.65;95937.19;5340892;26;20734;-62
2024/05/07 08:19:14;;;;;;;2.15;0.77;;;;;;;16.67;68.69;95933.91;5377227;26;20008;-63
2024/05/07 08:21:39;;;;;;;1.42;1.00;;;;;;;15.82;72.30;95937.91;5339397;26;20016;-62
2024/05/07 08:24:05;;;;;;;1.80;0.80;;;;;;;16.56;71.54;95933.34;5339279;26;20016;-63
2024/05/07 08:26:30;;;;;;;1.10;0.63;;;;;;;17.35;68.82;95932.25;5340633;26;20005;-62
2024/05/07 08:28:56;;;;;;;0.90;0.63;;;;;;;17.62;65.03;95937.44;5332036;26;20008;-62
2024/05/07 08:31:21;;;;;;;6.88;1.33;;;;;;;17.56;63.89;95937.88;5340032;26;20011;-63
2024/05/07 08:33:46;;;;;;;4.65;1.23;;;;;;;17.88;64.15;95934.97;5336797;26;20095;-62
2024/05/07 08:36:12;;;;;;;1.20;0.77;;;;;;;18.29;65.73;95943.81;5345693;26;20467;-62
2024/05/07 08:38:38;;;;;;;1.63;0.75;;;;;;;18.55;65.94;95942.03;5333710;26;20480;-62
2024/05/07 08:41:08;;;;;;;0.63;0.50;;;;;;;17.96;62.31;95946.78;5337199;26;20001;-63
2024/05/07 08:43:33;;;;;;;1.10;0.55;;;;;;;16.71;66.28;95948.22;5339412;26;20530;-63
2024/05/07 08:45:59;;;;;;;3.22;1.10;;;;;;;16.24;68.90;95947.56;5339998;26;20012;-63
2024/05/07 08:48:24;;;;;;;1.13;0.77;;;;;;;16.50;71.63;95950.50;5337840;26;20075;-63
2024/05/07 08:50:56;;;;;;;2.95;1.20;;;;;;;17.19;69.22;95948.56;5339358;26;20083;-63
2024/05/07 08:53:21;;;;;;;2.15;0.93;;;;;;;17.42;66.27;95953.94;5338301;26;20410;-63
2024/05/07 08:55:47;;;;;;;0.98;0.73;;;;;;;17.00;66.63;95953.25;5339813;26;20009;-63
2024/05/07 08:58:13;;;;;;;1.45;0.88;;;;;;;16.67;66.61;95950.72;5338347;26;20082;-63
2024/05/07 09:00:40;;;;;;;5.50;1.20;;;;;;;16.06;71.81;95959.06;5339883;26;20460;-63
2024/05/07 09:03:07;;;;;;;1.88;0.82;;;;;;;16.47;71.55;95956.44;5339251;26;20037;-63
2024/05/07 09:05:34;;;;;;;2.83;0.85;;;;;;;17.07;69.73;95948.31;5332210;26;20024;-63
2024/05/07 09:08:09;;;;;;;2.33;1.10;;;;;;;17.43;65.33;95958.16;5340311;26;20056;-63
2024/05/07 09:10:34;;;;;;;1.45;0.80;;;;;;;16.89;65.05;95951.91;5337677;26;20016;-63
2024/05/07 09:12:59;;;;;;;3.13;0.85;;;;;;;17.23;66.49;95947.97;5339899;26;20431;-63
2024/05/07 09:15:35;;;;;;;0.73;0.68;;;;;;;16.11;68.35;95953.66;5338731;26;20005;-63
2024/05/07 09:18:02;;;;;;;2.80;1.10;;;;;;;15.86;71.96;95958.34;5338060;26;20009;-63
2024/05/07 09:20:28;;;;;;;1.15;0.82;;;;;;;16.35;70.63;95953.47;5333224;26;20024;-63
2024/05/07 09:22:54;;;;;;;3.25;2.05;;;;;;;16.67;70.81;95952.56;5336460;26;20040;-62
2024/05/07 09:25:19;;;;;;;2.55;0.95;;;;;;;17.78;67.86;95951.25;5338738;26;20020;-63
2024/05/07 09:27:46;;;;;;;0.95;0.85;;;;;;;17.75;65.89;95954.50;5338768;26;20041;-63
2024/05/07 09:30:11;;;;;;;1.00;0.82;;;;;;;16.39;67.87;95959.78;5336700;26;20356;-63
2024/05/07 09:32:38;;;;;;;4.13;1.10;;;;;;;16.93;68.04;95953.66;5339082;26;20015;-63
2024/05/07 09:35:07;;;;;;;2.00;1.30;;;;;;;17.28;67.21;95955.84;5338777;26;20013;-63
2024/05/07 09:37:33;;;;;;;1.83;1.00;;;;;;;16.57;70.29;95961.56;5339698;26;20751;-63
2024/05/07 09:40:28;;;;;;;2.00;0.98;;;;;;;16.86;71.62;95957.81;5338355;26;20008;-63
2024/05/07 09:43:14;;;;;;;2.28;0.77;;;;;;;17.53;70.52;95960.59;5332695;26;20013;-63
2024/05/07 09:45:54;;;;;;;3.08;0.90;;;;;;;17.97;68.03;95953.72;5338114;26;20019;-63
2024/05/07 09:48:21;;;;;;;3.38;0.90;;;;;;;18.42;66.64;95958.97;5336906;26;20450;-63
2024/05/07 09:50:48;;;;;;;1.63;1.10;;;;;;;18.46;64.52;95959.91;5338167;26;20009;-63
2024/05/07 09:53:15;;;;;;;2.53;0.88;;;;;;;18.68;64.04;95962.56;5336984;26;20021;-64
2024/05/07 09:55:42;;;;;;;1.00;0.88;;;;;;;18.99;64.17;95952.88;5338738;26;20063;-63
2024/05/07 09:58:09;;;;;;;2.35;1.08;;;;;;;18.68;61.59;95957.22;5330110;26;20008;-63
2024/05/07 10:00:34;;;;;;;0.77;0.73;;;;;;;18.53;62.52;95960.25;5332246;26;20020;-63
2024/05/07 10:03:01;;;;;;;1.30;0.90;;;;;;;18.82;62.10;95956.28;5338779;26;20001;-64
2024/05/07 10:05:27;;;;;;;1.80;1.20;;;;;;;19.03;60.06;95951.16;5337277;26;20005;-63
2024/05/07 10:08:03;;;;;;;0.77;0.73;;;;;;;17.79;61.24;95952.81;5339114;26;20083;-63
2024/05/07 10:10:44;;;;;;;4.22;1.13;;;;;;;16.92;66.44;95961.97;5337474;26;20017;-63
2024/05/07 10:13:18;;;;;;;0.95;0.85;;;;;;;17.09;64.63;95964.78;5339524;26;20001;-63
2024/05/07 10:15:43;;;;;;;4.75;1.05;;;;;;;16.94;65.67;95949.13;5331198;26;20059;-62
2024/05/07 10:18:08;;;;;;;4.10;0.98;;;;;;;16.75;66.40;95954.56;5338225;26;20016;-62
2024/05/07 10:20:34;;;;;;;1.33;0.77;;;;;;;16.98;66.78;95950.09;5337405;26;20082;-63
2024/05/07 10:23:17;;;;;;;1.17;0.70;;;;;;;16.96;66.44;95956.81;5338243;26;20009;-63
2024/05/07 10:25:50;;;;;;;1.85;0.80;;;;;;;17.47;63.48;95955.69;5334767;26;20024;-63
2024/05/07 10:28:18;;;;;;;1.95;0.80;;;;;;;18.10;60.94;95952.84;5329710;26;20005;-63
2024/05/07 10:30:47;;;;;;;0.43;0.43;;;;;;;18.40;61.08;95958.50;5337308;26;20032;-64
2024/05/07 10:33:14;;;;;;;3.13;1.20;;;;;;;16.90;65.81;95954.25;5337973;26;20053;-63
2024/05/07 10:35:49;;;;;;;0.77;0.68;;;;;;;17.36;66.74;95955.94;5334818;26;20045;-63
2024/05/07 10:38:26;;;;;;;2.88;1.23;;;;;;;17.21;67.58;95964.28;5336715;26;20013;-63
2024/05/07 10:41:05;;;;;;;3.70;1.17;;;;;;;17.07;68.19;95968.84;5336703;26;20020;-63
2024/05/07 10:43:32;;;;;;;3.50;0.68;;;;;;;16.71;68.57;95960.75;5335934;26;20005;-62
2024/05/07 10:45:59;;;;;;;1.23;1.00;;;;;;;17.05;69.82;95960.34;5337594;26;20036;-63
2024/05/07 10:48:24;;;;;;;3.30;0.85;;;;;;;17.46;67.71;95960.25;5337395;26;20009;-63
2024/05/07 10:50:56;;;;;;;1.10;0.88;;;;;;;17.94;64.94;95965.78;5338638;26;20583;-63
2024/05/07 10:53:21;;;;;;;3.83;1.10;;;;;;;17.85;66.04;95962.28;5336757;26;20008;-63
2024/05/07 10:55:47;;;;;;;1.63;0.88;;;;;;;17.97;62.98;95964.41;5337768;26;20016;-63
2024/05/07 10:58:12;;;;;;;1.95;1.02;;;;;;;17.39;63.21;95959.84;5336867;26;20005;-63
2024/05/07 11:00:37;;;;;;;1.10;0.70;;;;;;;17.17;65.17;95957.97;5333931;26;20009;-63
2024/05/07 11:03:03;;;;;;;1.60;0.60;;;;;;;17.23;62.72;95955.97;5338402;26;20005;-63
2024/05/07 11:05:28;;;;;;;1.92;1.08;;;;;;;17.38;63.53;95958.28;5337605;26;20012;-63
2024/05/07 11:07:57;;;;;;;2.17;1.02;;;;;;;17.17;65.42;95952.63;5338515;26;20046;-63
2024/05/07 11:10:22;;;;;;;3.13;1.00;;;;;;;17.05;62.44;95955.81;5336813;26;20497;-63
2024/05/07 11:12:48;;;;;;;1.73;0.90;;;;;;;17.10;60.29;95958.38;5338638;26;20028;-63
2024/05/07 11:15:17;;;;;;;0.90;0.82;;;;;;;17.82;59.10;95956.75;5337726;26;20025;-63
2024/05/07 11:17:43;;;;;;;2.38;0.93;;;;;;;18.66;60.15;95956.69;5336226;26;20009;-63
2024/05/07 11:20:11;;;;;;;0.80;0.73;;;;;;;17.40;62.83;95956.13;5341528;26;20037;-63
2024/05/07 11:22:47;;;;;;;1.08;0.70;;;;;;;17.11;64.48;95951.97;5336925;26;20555;-63
2024/05/07 11:25:13;;;;;;;1.60;1.05;;;;;;;17.65;64.10;95954.75;5337353;26;20025;-63